Umar1 — 9HA2498 — position and weather

sailwx.info

Track history (hours):
 
Tides and Currents Weather Stations Pressure Air Temp Water Temp Dewpoint Dewpoint Depression Visibility Wind Speed Wind Dir Waves Ship Positions

Umar1

Last reported at 2017-Sep-19 21:59 UTC. Time now 2017-Sep-19 22:17 UTC.
Position N 51°53' E 004°16'.

Length 100 m; draft 5.7 m.

Type: Tanker. MMSI: 248751000.

Date/timePositionNaut miles runAvg speedWind from/ knotsBaromVisibWave heightAir tempDewpointWater temp
2017-Sep-19 21:59N 51°53' E 004°16'0 0.0
2017-Sep-19 21:26N 51°53' E 004°16'0 0.0
2017-Sep-19 20:59N 51°53' E 004°16'0 0.0
2017-Sep-19 20:29N 51°53' E 004°16'0 0.0
2017-Sep-19 19:59N 51°53' E 004°16'0 0.0
2017-Sep-19 19:30N 51°53' E 004°16'1 1.8
2017-Sep-19 19:00N 51°53' E 004°17'2 4.7
2017-Sep-19 18:30N 51°55' E 004°15'4 7.6
2017-Sep-19 18:00N 51°57' E 004°10'4 8.1
2017-Sep-19 17:31N 51°59' E 004°04'510.3
2017-Sep-19 17:00N 52°00' E 003°56'610.3
2017-Sep-19 16:28N 51°60' E 003°47'612.1
2017-Sep-19 16:00N 51°58' E 003°38'611.8
2017-Sep-19 15:29N 51°56' E 003°29'510.9
2017-Sep-19 15:00N 51°55' E 003°21'611.5
2017-Sep-19 14:29N 51°53' E 003°11'3611.7
2017-Sep-19 11:24N 51°36' E 002°21'511.8
2017-Sep-19 10:59N 51°32' E 002°15'611.4
2017-Sep-19 10:30N 51°28' E 002°09'511.1
2017-Sep-19 10:01N 51°24' E 002°03'510.5
2017-Sep-19 09:30N 51°20' E 001°58'5 9.7
2017-Sep-19 09:01N 51°16' E 001°54'4 8.8
2017-Sep-19 08:31N 51°13' E 001°49'4 8.6
2017-Sep-19 08:01N 51°09' E 001°44'4 8.0
2017-Sep-19 07:31N 51°06' E 001°41'4 7.7
2017-Sep-19 07:00N 51°03' E 001°37'4 7.7
2017-Sep-19 06:30N 50°60' E 001°34'4 7.9
2017-Sep-19 06:00N 50°57' E 001°30'12010.6
2017-Sep-18 18:37N 50°04' W 001°20'215.2
2017-Sep-18 18:30N 50°04' W 001°23'815.2
2017-Sep-18 18:00N 50°02' W 001°34'815.1
2017-Sep-18 17:31N 50°00' W 001°46'384 8.0
2017-Sep-16 17:22N 43°41' W 003°15'3 9.2
2017-Sep-16 17:01N 43°38' W 003°14'5 9.6
2017-Sep-16 16:31N 43°34' W 003°11'5 9.3
2017-Sep-16 16:00N 43°30' W 003°09'4 8.5
2017-Sep-16 15:30N 43°26' W 003°07'4 7.5
2017-Sep-16 15:01N 43°22' W 003°05'0 0.7
2017-Sep-16 14:27N 43°22' W 003°05'0 0.0
2017-Sep-16 14:00N 43°22' W 003°05'0 0.0
2017-Sep-16 13:30N 43°22' W 003°05'0 0.0
2017-Sep-16 13:00N 43°22' W 003°05'0 0.0
2017-Sep-16 12:30N 43°22' W 003°05'0 0.0
2017-Sep-16 12:00N 43°22' W 003°05'0 0.0
2017-Sep-16 11:30N 43°22' W 003°05'0 0.0
2017-Sep-16 11:00N 43°22' W 003°05'0 0.0
2017-Sep-16 10:30N 43°22' W 003°05'0 0.0
2017-Sep-16 10:00N 43°22' W 003°05'0 0.0
2017-Sep-16 09:30N 43°22' W 003°05'0 0.0
2017-Sep-16 09:00N 43°22' W 003°05'0 0.0
2017-Sep-16 08:27N 43°22' W 003°05'0 0.0
2017-Sep-16 08:00N 43°22' W 003°05'0 0.0
2017-Sep-16 07:30N 43°22' W 003°05'0 0.0
2017-Sep-16 07:00N 43°22' W 003°05'0 0.0
2017-Sep-16 06:30N 43°22' W 003°05'0 0.0
2017-Sep-16 06:00N 43°22' W 003°05'0 0.0
2017-Sep-16 05:30N 43°22' W 003°05'0 0.0
2017-Sep-16 05:00N 43°22' W 003°05'0 0.0
2017-Sep-16 04:30N 43°22' W 003°05'0 0.0
2017-Sep-16 03:54N 43°22' W 003°05'0 0.0
2017-Sep-16 03:30N 43°22' W 003°05'0 0.0
2017-Sep-16 03:00N 43°22' W 003°05'0 0.0
2017-Sep-16 02:30N 43°22' W 003°05'0 0.0
2017-Sep-16 02:00N 43°22' W 003°05'0 0.0
2017-Sep-16 01:30N 43°22' W 003°05'0 0.0
2017-Sep-16 01:00N 43°22' W 003°05'0 0.0
2017-Sep-16 00:30N 43°22' W 003°05'0 0.0
2017-Sep-16 00:00N 43°22' W 003°05'0 0.0
2017-Sep-15 23:30N 43°22' W 003°05'0 0.0
2017-Sep-15 23:00N 43°22' W 003°05'0 0.0
2017-Sep-15 22:30N 43°22' W 003°05'0 0.7
2017-Sep-15 22:00N 43°22' W 003°05'3 5.4
2017-Sep-15 21:30N 43°24' W 003°08'1 1.6
2017-Sep-15 20:59N 43°23' W 003°08'0 0.1
2017-Sep-15 20:29N 43°23' W 003°08'0 0.0
2017-Sep-15 19:59N 43°23' W 003°08'0 0.0
2017-Sep-15 19:29N 43°23' W 003°08'0 0.0
2017-Sep-15 18:59N 43°23' W 003°08'0 0.0
2017-Sep-15 18:29N 43°23' W 003°08'0 0.0
2017-Sep-15 17:59N 43°23' W 003°08'0 0.0
2017-Sep-15 17:29N 43°23' W 003°08'0 0.0
2017-Sep-15 16:59N 43°23' W 003°08'0 0.0
2017-Sep-15 16:29N 43°23' W 003°08'0 0.0
2017-Sep-15 15:53N 43°23' W 003°08'0 0.0
2017-Sep-15 15:29N 43°23' W 003°08'0 0.0
2017-Sep-15 14:59N 43°23' W 003°08'0 0.0
2017-Sep-15 14:29N 43°23' W 003°08'0 0.0
2017-Sep-15 13:59N 43°23' W 003°08'0 0.0
2017-Sep-15 13:29N 43°23' W 003°08'0 0.0
2017-Sep-15 12:59N 43°23' W 003°08'0 0.0
2017-Sep-15 12:29N 43°23' W 003°08'0 0.1
2017-Sep-15 11:59N 43°23' W 003°08'0 0.1
2017-Sep-15 11:29N 43°23' W 003°08'0 0.1
2017-Sep-15 10:59N 43°23' W 003°08'0 0.0
2017-Sep-15 10:26N 43°23' W 003°08'0 0.1
2017-Sep-15 09:59N 43°23' W 003°08'0 0.1
2017-Sep-15 09:29N 43°23' W 003°08'0 0.1
2017-Sep-15 08:59N 43°23' W 003°08'0 0.1
2017-Sep-15 08:26N 43°23' W 003°08'0 0.1
2017-Sep-15 07:59N 43°23' W 003°08'0 0.1
2017-Sep-15 07:29N 43°23' W 003°08'0 0.0
2017-Sep-15 06:59N 43°23' W 003°08'0 0.0
2017-Sep-15 06:29N 43°23' W 003°08'0 0.0
2017-Sep-15 05:56N 43°23' W 003°08'0 0.0
2017-Sep-15 05:29N 43°23' W 003°08'0 0.0
2017-Sep-15 04:59N 43°23' W 003°08'0 0.0
2017-Sep-15 04:29N 43°23' W 003°08'0 0.0
2017-Sep-15 03:56N 43°23' W 003°08'0 0.0
2017-Sep-15 03:26N 43°23' W 003°08'0 0.0
2017-Sep-15 02:29N 43°23' W 003°08'0 0.0
2017-Sep-15 01:53N 43°23' W 003°08'0 0.0
2017-Sep-15 01:29N 43°23' W 003°08'0 0.0
2017-Sep-15 00:35N 43°23' W 003°08'0 0.1
2017-Sep-15 00:29N 43°23' W 003°08'0 0.0
2017-Sep-14 23:56N 43°23' W 003°08'0 0.0
2017-Sep-14 23:23N 43°23' W 003°08'0 0.0
2017-Sep-14 22:56N 43°23' W 003°08'0 0.0
2017-Sep-14 22:20N 43°23' W 003°08'0 0.0
2017-Sep-14 21:53N 43°23' W 003°08'0 0.0
2017-Sep-14 21:23N 43°23' W 003°08'0 0.0
2017-Sep-14 20:59N 43°23' W 003°08'0 0.0
2017-Sep-14 20:23N 43°23' W 003°08'0 0.0
2017-Sep-14 19:56N 43°23' W 003°08'0 0.0
2017-Sep-14 19:26N 43°23' W 003°08'0 0.0
2017-Sep-14 18:56N 43°23' W 003°08'0 0.0
2017-Sep-14 18:29N 43°23' W 003°08'0 0.0
2017-Sep-14 17:59N 43°23' W 003°08'0 0.0
2017-Sep-14 17:23N 43°23' W 003°08'0 0.0
2017-Sep-14 16:56N 43°23' W 003°08'0 0.0
2017-Sep-14 16:29N 43°23' W 003°08'0 0.0
2017-Sep-14 15:56N 43°23' W 003°08'0 0.0
2017-Sep-14 15:11N 43°23' W 003°08'0 0.0
2017-Sep-14 14:59N 43°23' W 003°08'0 0.0
2017-Sep-14 14:23N 43°23' W 003°08'0 0.0
2017-Sep-14 13:56N 43°23' W 003°08'0 0.0
2017-Sep-14 13:26N 43°23' W 003°08'0 0.0
2017-Sep-14 12:59N 43°23' W 003°08'0 0.0
2017-Sep-14 12:29N 43°23' W 003°08'0 0.0
2017-Sep-14 11:56N 43°23' W 003°08'0 0.0
2017-Sep-14 11:23N 43°23' W 003°08'  
Track history (hours):
 
Tides and Currents Weather Stations Pressure Air Temp Water Temp Dewpoint Dewpoint Depression Visibility Wind Speed Wind Dir Waves Ship Positions

Umar1

Last reported at 2017-Sep-19 21:59 UTC. Time now 2017-Sep-19 22:17 UTC.
Position N 51°53' E 004°16'.

Length 100 m; draft 5.7 m.

Type: Tanker. MMSI: 248751000.

Date/timePositionNaut miles runAvg speedWind from/ knotsBaromVisibWave heightAir tempDewpointWater temp
2017-Sep-19 21:59N 51°53' E 004°16'0 0.0
2017-Sep-19 21:26N 51°53' E 004°16'0 0.0
2017-Sep-19 20:59N 51°53' E 004°16'0 0.0
2017-Sep-19 20:29N 51°53' E 004°16'0 0.0
2017-Sep-19 19:59N 51°53' E 004°16'0 0.0
2017-Sep-19 19:30N 51°53' E 004°16'1 1.8
2017-Sep-19 19:00N 51°53' E 004°17'2 4.7
2017-Sep-19 18:30N 51°55' E 004°15'4 7.6
2017-Sep-19 18:00N 51°57' E 004°10'4 8.1
2017-Sep-19 17:31N 51°59' E 004°04'510.3
2017-Sep-19 17:00N 52°00' E 003°56'610.3
2017-Sep-19 16:28N 51°60' E 003°47'612.1
2017-Sep-19 16:00N 51°58' E 003°38'611.8
2017-Sep-19 15:29N 51°56' E 003°29'510.9
2017-Sep-19 15:00N 51°55' E 003°21'611.5
2017-Sep-19 14:29N 51°53' E 003°11'3611.7
2017-Sep-19 11:24N 51°36' E 002°21'511.8
2017-Sep-19 10:59N 51°32' E 002°15'611.4
2017-Sep-19 10:30N 51°28' E 002°09'511.1
2017-Sep-19 10:01N 51°24' E 002°03'510.5
2017-Sep-19 09:30N 51°20' E 001°58'5 9.7
2017-Sep-19 09:01N 51°16' E 001°54'4 8.8
2017-Sep-19 08:31N 51°13' E 001°49'4 8.6
2017-Sep-19 08:01N 51°09' E 001°44'4 8.0
2017-Sep-19 07:31N 51°06' E 001°41'4 7.7
2017-Sep-19 07:00N 51°03' E 001°37'4 7.7
2017-Sep-19 06:30N 50°60' E 001°34'4 7.9
2017-Sep-19 06:00N 50°57' E 001°30'12010.6
2017-Sep-18 18:37N 50°04' W 001°20'215.2
2017-Sep-18 18:30N 50°04' W 001°23'815.2
2017-Sep-18 18:00N 50°02' W 001°34'815.1
2017-Sep-18 17:31N 50°00' W 001°46'384 8.0
2017-Sep-16 17:22N 43°41' W 003°15'3 9.2
2017-Sep-16 17:01N 43°38' W 003°14'5 9.6
2017-Sep-16 16:31N 43°34' W 003°11'5 9.3
2017-Sep-16 16:00N 43°30' W 003°09'4 8.5
2017-Sep-16 15:30N 43°26' W 003°07'4 7.5
2017-Sep-16 15:01N 43°22' W 003°05'0 0.7
2017-Sep-16 14:27N 43°22' W 003°05'0 0.0
2017-Sep-16 14:00N 43°22' W 003°05'0 0.0
2017-Sep-16 13:30N 43°22' W 003°05'0 0.0
2017-Sep-16 13:00N 43°22' W 003°05'0 0.0
2017-Sep-16 12:30N 43°22' W 003°05'0 0.0
2017-Sep-16 12:00N 43°22' W 003°05'0 0.0
2017-Sep-16 11:30N 43°22' W 003°05'0 0.0
2017-Sep-16 11:00N 43°22' W 003°05'0 0.0
2017-Sep-16 10:30N 43°22' W 003°05'0 0.0
2017-Sep-16 10:00N 43°22' W 003°05'0 0.0
2017-Sep-16 09:30N 43°22' W 003°05'0 0.0
2017-Sep-16 09:00N 43°22' W 003°05'0 0.0
2017-Sep-16 08:27N 43°22' W 003°05'0 0.0
2017-Sep-16 08:00N 43°22' W 003°05'0 0.0
2017-Sep-16 07:30N 43°22' W 003°05'0 0.0
2017-Sep-16 07:00N 43°22' W 003°05'0 0.0
2017-Sep-16 06:30N 43°22' W 003°05'0 0.0
2017-Sep-16 06:00N 43°22' W 003°05'0 0.0
2017-Sep-16 05:30N 43°22' W 003°05'0 0.0
2017-Sep-16 05:00N 43°22' W 003°05'0 0.0
2017-Sep-16 04:30N 43°22' W 003°05'0 0.0
2017-Sep-16 03:54N 43°22' W 003°05'0 0.0
2017-Sep-16 03:30N 43°22' W 003°05'0 0.0
2017-Sep-16 03:00N 43°22' W 003°05'0 0.0
2017-Sep-16 02:30N 43°22' W 003°05'0 0.0
2017-Sep-16 02:00N 43°22' W 003°05'0 0.0
2017-Sep-16 01:30N 43°22' W 003°05'0 0.0
2017-Sep-16 01:00N 43°22' W 003°05'0 0.0
2017-Sep-16 00:30N 43°22' W 003°05'0 0.0
2017-Sep-16 00:00N 43°22' W 003°05'0 0.0
2017-Sep-15 23:30N 43°22' W 003°05'0 0.0
2017-Sep-15 23:00N 43°22' W 003°05'0 0.0
2017-Sep-15 22:30N 43°22' W 003°05'0 0.7
2017-Sep-15 22:00N 43°22' W 003°05'3 5.4
2017-Sep-15 21:30N 43°24' W 003°08'1 1.6
2017-Sep-15 20:59N 43°23' W 003°08'0 0.1
2017-Sep-15 20:29N 43°23' W 003°08'0 0.0
2017-Sep-15 19:59N 43°23' W 003°08'0 0.0
2017-Sep-15 19:29N 43°23' W 003°08'0 0.0
2017-Sep-15 18:59N 43°23' W 003°08'0 0.0
2017-Sep-15 18:29N 43°23' W 003°08'0 0.0
2017-Sep-15 17:59N 43°23' W 003°08'0 0.0
2017-Sep-15 17:29N 43°23' W 003°08'0 0.0
2017-Sep-15 16:59N 43°23' W 003°08'0 0.0
2017-Sep-15 16:29N 43°23' W 003°08'0 0.0
2017-Sep-15 15:53N 43°23' W 003°08'0 0.0
2017-Sep-15 15:29N 43°23' W 003°08'0 0.0
2017-Sep-15 14:59N 43°23' W 003°08'0 0.0
2017-Sep-15 14:29N 43°23' W 003°08'0 0.0
2017-Sep-15 13:59N 43°23' W 003°08'0 0.0
2017-Sep-15 13:29N 43°23' W 003°08'0 0.0
2017-Sep-15 12:59N 43°23' W 003°08'0 0.0
2017-Sep-15 12:29N 43°23' W 003°08'0 0.1
2017-Sep-15 11:59N 43°23' W 003°08'0 0.1
2017-Sep-15 11:29N 43°23' W 003°08'0 0.1
2017-Sep-15 10:59N 43°23' W 003°08'0 0.0
2017-Sep-15 10:26N 43°23' W 003°08'0 0.1
2017-Sep-15 09:59N 43°23' W 003°08'0 0.1
2017-Sep-15 09:29N 43°23' W 003°08'0 0.1
2017-Sep-15 08:59N 43°23' W 003°08'0 0.1
2017-Sep-15 08:26N 43°23' W 003°08'0 0.1
2017-Sep-15 07:59N 43°23' W 003°08'0 0.1
2017-Sep-15 07:29N 43°23' W 003°08'0 0.0
2017-Sep-15 06:59N 43°23' W 003°08'0 0.0
2017-Sep-15 06:29N 43°23' W 003°08'0 0.0
2017-Sep-15 05:56N 43°23' W 003°08'0 0.0
2017-Sep-15 05:29N 43°23' W 003°08'0 0.0
2017-Sep-15 04:59N 43°23' W 003°08'0 0.0
2017-Sep-15 04:29N 43°23' W 003°08'0 0.0
2017-Sep-15 03:56N 43°23' W 003°08'0 0.0
2017-Sep-15 03:26N 43°23' W 003°08'0 0.0
2017-Sep-15 02:29N 43°23' W 003°08'0 0.0
2017-Sep-15 01:53N 43°23' W 003°08'0 0.0
2017-Sep-15 01:29N 43°23' W 003°08'0 0.0
2017-Sep-15 00:35N 43°23' W 003°08'0 0.1
2017-Sep-15 00:29N 43°23' W 003°08'0 0.0
2017-Sep-14 23:56N 43°23' W 003°08'0 0.0
2017-Sep-14 23:23N 43°23' W 003°08'0 0.0
2017-Sep-14 22:56N 43°23' W 003°08'0 0.0
2017-Sep-14 22:20N 43°23' W 003°08'0 0.0
2017-Sep-14 21:53N 43°23' W 003°08'0 0.0
2017-Sep-14 21:23N 43°23' W 003°08'0 0.0
2017-Sep-14 20:59N 43°23' W 003°08'0 0.0
2017-Sep-14 20:23N 43°23' W 003°08'0 0.0
2017-Sep-14 19:56N 43°23' W 003°08'0 0.0
2017-Sep-14 19:26N 43°23' W 003°08'0 0.0
2017-Sep-14 18:56N 43°23' W 003°08'0 0.0
2017-Sep-14 18:29N 43°23' W 003°08'0 0.0
2017-Sep-14 17:59N 43°23' W 003°08'0 0.0
2017-Sep-14 17:23N 43°23' W 003°08'0 0.0
2017-Sep-14 16:56N 43°23' W 003°08'0 0.0
2017-Sep-14 16:29N 43°23' W 003°08'0 0.0
2017-Sep-14 15:56N 43°23' W 003°08'0 0.0
2017-Sep-14 15:11N 43°23' W 003°08'0 0.0
2017-Sep-14 14:59N 43°23' W 003°08'0 0.0
2017-Sep-14 14:23N 43°23' W 003°08'0 0.0
2017-Sep-14 13:56N 43°23' W 003°08'0 0.0
2017-Sep-14 13:26N 43°23' W 003°08'0 0.0
2017-Sep-14 12:59N 43°23' W 003°08'0 0.0
2017-Sep-14 12:29N 43°23' W 003°08'0 0.0
2017-Sep-14 11:56N 43°23' W 003°08'0 0.0
2017-Sep-14 11:23N 43°23' W 003°08'  

Dump ship's entire track history